Pagrindinis puslapis
METAR-TAF:

METAR-TAF

Oro uostai :

Nakashibetsu, Japonija

platuma: 43-34N, ilguma: 144-58E, Aukštis: 66 m

Dabartinis oras

Ataskaita buvo paskelbta 3 valandos ir 47 minutes, ne 09:00 UTC
Vėjas 7 kt iš Vakarų
Temperatūra -10°C
Drėgmė 67%
Slėgis 1025 hPa
Matomumas 10 km arba daugiau
Mažai debesys ne aukštis 4000 ft

METAR: RJCN 090900Z 26007KT 9999 FEW040 M10/M15 Q1025

Laikas: 21:47 (12:47 UTC)


TAF: trūkstamas

Orai ataskaitas ir orų prognozės (METAR, TAF).

turimą stotys yra geltonos ir raudonos taškus žemėlapyje.

Perkelti pele per norėdami pamatyti stoties vardą.

Tada spustelėkite, norėdami matyti oro stebėjimo ir prognozės.

Norėdami pakeisti žemėlapį: spustelėkite ant žalios mygtukų su juodo kryžiaus žemyn,; žalią mygtuką su brūkšneliu, jei norite nutolinti; arba žalių rodyklių gretimoms žemėlapius.


METAR-TAF: